EmailTwitter


Surface observations / Quebec / CYUL (71627)

Regions: Quebec | Canada | USA | Europe | France | UK | Elsewhere
Station
Display
Info & Location for CYUL (71627) | Help decoding METAR

Weather Conditions observed on 2018/01/23 at 05:52 UTC at MONTREAL INTL A, QB (CYUL)

Sky conditions: overcast.

Obstruction(s) to Vision: light freezing rain and light snow.

Temperature: -4.0 Celsius.

Dewpoint: -5.0 Celsius.

Relative Humidity: 93%

Windchill Factor: -11.

Winds: Northeast at 28 km/h or 15 knots.

Mean Sea level Pressure: 101.36 kilopascals.

Altimeter Setting (QNH): 101.32 kilopascals or 29.92 inches of mercury.

Horizontal visibility: 6.00 statute miles or 9.60 kilometers.

Height of the Ceiling: 274 metres ( 900 feet ).

Coded METAR:

CYUL 230552Z 04015KT 6SM -FZRA -SN OVC009 M04/M05 A2992 RMK SF8 SLP136=